sensor_id;sensor_type;location;lat;lon;timestamp;pressure;altitude;pressure_sealevel;temperature;humidity
79645;BME280;69117;47.148;18.954;2023-08-21T00:00:28;100969.72;;;22.01;100.00
79645;BME280;69117;47.148;18.954;2023-08-21T00:03:30;100971.75;;;21.92;100.00
79645;BME280;69117;47.148;18.954;2023-08-21T00:06:32;100976.09;;;21.86;100.00
79645;BME280;69117;47.148;18.954;2023-08-21T00:09:34;100976.50;;;21.83;100.00
79645;BME280;69117;47.148;18.954;2023-08-21T00:12:35;100979.59;;;21.80;100.00
79645;BME280;69117;47.148;18.954;2023-08-21T00:15:38;100983.53;;;21.78;100.00
79645;BME280;69117;47.148;18.954;2023-08-21T00:18:41;100978.94;;;21.71;100.00
79645;BME280;69117;47.148;18.954;2023-08-21T00:21:43;100979.59;;;21.87;100.00
79645;BME280;69117;47.148;18.954;2023-08-21T00:24:44;100976.72;;;21.88;100.00
79645;BME280;69117;47.148;18.954;2023-08-21T00:27:46;100980.03;;;21.90;100.00
79645;BME280;69117;47.148;18.954;2023-08-21T00:30:48;100981.91;;;21.90;100.00
79645;BME280;69117;47.148;18.954;2023-08-21T00:33:49;100983.34;;;21.92;100.00
79645;BME280;69117;47.148;18.954;2023-08-21T00:36:52;100968.84;;;21.87;100.00
79645;BME280;69117;47.148;18.954;2023-08-21T00:39:53;100973.41;;;21.93;100.00
79645;BME280;69117;47.148;18.954;2023-08-21T00:42:55;100976.94;;;21.93;100.00
79645;BME280;69117;47.148;18.954;2023-08-21T00:45:57;100983.78;;;21.96;100.00
79645;BME280;69117;47.148;18.954;2023-08-21T00:48:59;100982.50;;;21.79;100.00
79645;BME280;69117;47.148;18.954;2023-08-21T00:52:01;100981.63;;;21.65;100.00
79645;BME280;69117;47.148;18.954;2023-08-21T00:55:03;100980.16;;;21.56;100.00
79645;BME280;69117;47.148;18.954;2023-08-21T00:58:05;100989.84;;;21.50;100.00
79645;BME280;69117;47.148;18.954;2023-08-21T01:01:07;100989.00;;;21.43;100.00
79645;BME280;69117;47.148;18.954;2023-08-21T01:04:09;100984.41;;;21.37;100.00
79645;BME280;69117;47.148;18.954;2023-08-21T01:07:11;100986.16;;;21.23;100.00
79645;BME280;69117;47.148;18.954;2023-08-21T01:10:34;100982.66;;;21.22;100.00
79645;BME280;69117;47.148;18.954;2023-08-21T01:13:47;100982.22;;;21.19;100.00
79645;BME280;69117;47.148;18.954;2023-08-21T01:16:56;100989.88;;;21.22;100.00
79645;BME280;69117;47.148;18.954;2023-08-21T01:20:01;100986.56;;;21.20;100.00
79645;BME280;69117;47.148;18.954;2023-08-21T01:23:04;100988.84;;;21.23;100.00
79645;BME280;69117;47.148;18.954;2023-08-21T01:26:07;100994.63;;;21.20;100.00
79645;BME280;69117;47.148;18.954;2023-08-21T01:29:09;100995.03;;;21.17;100.00
79645;BME280;69117;47.148;18.954;2023-08-21T01:32:15;100997.91;;;21.15;100.00
79645;BME280;69117;47.148;18.954;2023-08-21T01:35:20;100998.34;;;21.19;100.00
79645;BME280;69117;47.148;18.954;2023-08-21T01:38:22;101003.31;;;21.22;100.00
79645;BME280;69117;47.148;18.954;2023-08-21T01:41:24;101002.97;;;21.32;100.00
79645;BME280;69117;47.148;18.954;2023-08-21T01:44:26;100989.88;;;21.22;100.00
79645;BME280;69117;47.148;18.954;2023-08-21T01:47:28;100988.41;;;21.13;100.00
79645;BME280;69117;47.148;18.954;2023-08-21T01:50:31;100990.66;;;21.09;100.00
79645;BME280;69117;47.148;18.954;2023-08-21T01:53:32;100990.59;;;21.02;100.00
79645;BME280;69117;47.148;18.954;2023-08-21T01:56:34;100988.28;;;20.99;100.00
79645;BME280;69117;47.148;18.954;2023-08-21T01:59:37;100994.31;;;21.01;100.00
79645;BME280;69117;47.148;18.954;2023-08-21T02:02:39;100996.19;;;21.01;100.00
79645;BME280;69117;47.148;18.954;2023-08-21T02:05:41;100997.41;;;20.98;100.00
79645;BME280;69117;47.148;18.954;2023-08-21T02:08:43;100987.03;;;20.95;100.00
79645;BME280;69117;47.148;18.954;2023-08-21T02:11:45;101003.81;;;20.97;100.00
79645;BME280;69117;47.148;18.954;2023-08-21T02:14:46;101002.53;;;20.93;100.00
79645;BME280;69117;47.148;18.954;2023-08-21T02:17:48;101001.13;;;20.97;100.00
79645;BME280;69117;47.148;18.954;2023-08-21T02:20:50;101004.47;;;21.06;100.00
79645;BME280;69117;47.148;18.954;2023-08-21T02:23:51;100996.50;;;21.19;100.00
79645;BME280;69117;47.148;18.954;2023-08-21T02:26:53;100991.28;;;21.18;100.00
79645;BME280;69117;47.148;18.954;2023-08-21T02:29:55;100990.47;;;21.17;100.00
79645;BME280;69117;47.148;18.954;2023-08-21T02:32:57;100990.72;;;21.22;100.00
79645;BME280;69117;47.148;18.954;2023-08-21T02:35:59;100996.25;;;21.14;100.00
79645;BME280;69117;47.148;18.954;2023-08-21T02:39:02;101002.34;;;20.95;100.00
79645;BME280;69117;47.148;18.954;2023-08-21T02:42:05;101008.94;;;20.92;100.00
79645;BME280;69117;47.148;18.954;2023-08-21T02:45:07;101004.34;;;20.86;100.00
79645;BME280;69117;47.148;18.954;2023-08-21T02:48:09;101009.22;;;20.76;100.00
79645;BME280;69117;47.148;18.954;2023-08-21T02:51:11;101008.34;;;20.69;100.00
79645;BME280;69117;47.148;18.954;2023-08-21T02:54:13;101014.41;;;20.77;100.00
79645;BME280;69117;47.148;18.954;2023-08-21T02:57:14;101009.47;;;20.81;100.00
79645;BME280;69117;47.148;18.954;2023-08-21T03:00:16;101006.59;;;20.83;100.00
79645;BME280;69117;47.148;18.954;2023-08-21T03:03:18;101007.66;;;20.88;100.00
79645;BME280;69117;47.148;18.954;2023-08-21T03:06:20;101002.88;;;20.84;100.00
79645;BME280;69117;47.148;18.954;2023-08-21T03:09:22;101001.78;;;20.78;100.00
79645;BME280;69117;47.148;18.954;2023-08-21T03:12:23;101006.56;;;20.76;100.00
79645;BME280;69117;47.148;18.954;2023-08-21T03:15:25;101006.72;;;20.74;100.00
79645;BME280;69117;47.148;18.954;2023-08-21T03:18:30;101008.97;;;20.71;100.00
79645;BME280;69117;47.148;18.954;2023-08-21T03:21:32;101003.19;;;20.67;100.00
79645;BME280;69117;47.148;18.954;2023-08-21T03:24:34;101005.66;;;20.69;100.00
79645;BME280;69117;47.148;18.954;2023-08-21T03:27:36;101007.34;;;20.70;100.00
79645;BME280;69117;47.148;18.954;2023-08-21T03:30:41;101012.44;;;20.65;100.00
79645;BME280;69117;47.148;18.954;2023-08-21T03:33:43;101019.25;;;20.61;100.00
79645;BME280;69117;47.148;18.954;2023-08-21T03:36:45;101016.94;;;20.57;100.00
79645;BME280;69117;47.148;18.954;2023-08-21T03:39:46;101021.72;;;20.62;100.00
79645;BME280;69117;47.148;18.954;2023-08-21T03:42:48;101023.84;;;20.67;100.00
79645;BME280;69117;47.148;18.954;2023-08-21T03:45:50;101021.16;;;20.67;100.00
79645;BME280;69117;47.148;18.954;2023-08-21T03:48:51;101014.53;;;20.69;100.00
79645;BME280;69117;47.148;18.954;2023-08-21T03:51:53;101017.81;;;20.65;100.00
79645;BME280;69117;47.148;18.954;2023-08-21T03:54:55;101013.88;;;20.61;100.00
79645;BME280;69117;47.148;18.954;2023-08-21T03:57:57;101015.69;;;20.60;100.00
79645;BME280;69117;47.148;18.954;2023-08-21T04:00:58;101016.28;;;20.55;100.00
79645;BME280;69117;47.148;18.954;2023-08-21T04:04:00;101011.94;;;20.54;100.00
79645;BME280;69117;47.148;18.954;2023-08-21T04:07:02;101017.94;;;20.56;100.00
79645;BME280;69117;47.148;18.954;2023-08-21T04:10:03;101011.75;;;20.56;100.00
79645;BME280;69117;47.148;18.954;2023-08-21T04:13:05;101022.31;;;20.57;100.00
79645;BME280;69117;47.148;18.954;2023-08-21T04:16:07;101019.63;;;20.57;100.00
79645;BME280;69117;47.148;18.954;2023-08-21T04:19:09;101018.19;;;20.62;100.00
79645;BME280;69117;47.148;18.954;2023-08-21T04:22:11;101025.75;;;20.73;100.00
79645;BME280;69117;47.148;18.954;2023-08-21T04:25:13;101025.78;;;20.79;100.00
79645;BME280;69117;47.148;18.954;2023-08-21T04:28:14;101029.94;;;20.82;100.00
79645;BME280;69117;47.148;18.954;2023-08-21T04:31:16;101024.00;;;20.93;100.00
79645;BME280;69117;47.148;18.954;2023-08-21T04:34:18;101028.41;;;21.01;100.00
79645;BME280;69117;47.148;18.954;2023-08-21T04:37:19;101033.44;;;21.11;100.00
79645;BME280;69117;47.148;18.954;2023-08-21T04:40:24;101029.38;;;21.21;100.00
79645;BME280;69117;47.148;18.954;2023-08-21T04:43:26;101039.00;;;21.37;100.00
79645;BME280;69117;47.148;18.954;2023-08-21T04:46:27;101038.22;;;21.43;100.00
79645;BME280;69117;47.148;18.954;2023-08-21T04:49:29;101036.38;;;21.50;100.00
79645;BME280;69117;47.148;18.954;2023-08-21T04:52:31;101038.75;;;21.67;100.00
79645;BME280;69117;47.148;18.954;2023-08-21T04:55:32;101040.84;;;21.78;100.00
79645;BME280;69117;47.148;18.954;2023-08-21T04:58:34;101039.44;;;21.95;100.00
79645;BME280;69117;47.148;18.954;2023-08-21T05:01:36;101039.28;;;22.10;100.00
79645;BME280;69117;47.148;18.954;2023-08-21T05:04:37;101048.47;;;22.29;100.00
79645;BME280;69117;47.148;18.954;2023-08-21T05:07:39;101038.16;;;22.39;100.00
79645;BME280;69117;47.148;18.954;2023-08-21T05:10:41;101045.41;;;22.52;100.00
79645;BME280;69117;47.148;18.954;2023-08-21T05:13:42;101041.69;;;22.67;100.00
79645;BME280;69117;47.148;18.954;2023-08-21T05:16:44;101044.34;;;22.86;100.00
79645;BME280;69117;47.148;18.954;2023-08-21T05:19:45;101037.31;;;22.99;100.00
79645;BME280;69117;47.148;18.954;2023-08-21T05:22:47;101050.38;;;23.15;100.00
79645;BME280;69117;47.148;18.954;2023-08-21T05:25:49;101043.06;;;23.29;100.00
79645;BME280;69117;47.148;18.954;2023-08-21T05:28:50;101047.81;;;23.47;100.00
79645;BME280;69117;47.148;18.954;2023-08-21T05:31:52;101046.09;;;23.59;100.00
79645;BME280;69117;47.148;18.954;2023-08-21T05:34:54;101050.84;;;23.77;100.00
79645;BME280;69117;47.148;18.954;2023-08-21T05:37:55;101047.06;;;23.85;100.00
79645;BME280;69117;47.148;18.954;2023-08-21T05:40:57;101055.72;;;24.00;100.00
79645;BME280;69117;47.148;18.954;2023-08-21T05:43:59;101051.88;;;24.14;100.00
79645;BME280;69117;47.148;18.954;2023-08-21T05:47:01;101063.25;;;24.23;100.00
79645;BME280;69117;47.148;18.954;2023-08-21T05:50:03;101068.13;;;24.08;100.00
79645;BME280;69117;47.148;18.954;2023-08-21T05:53:06;101064.16;;;24.10;100.00
79645;BME280;69117;47.148;18.954;2023-08-21T05:56:07;101066.63;;;24.18;100.00
79645;BME280;69117;47.148;18.954;2023-08-21T05:59:10;101064.63;;;24.39;100.00
79645;BME280;69117;47.148;18.954;2023-08-21T06:02:13;101073.00;;;24.62;100.00
79645;BME280;69117;47.148;18.954;2023-08-21T06:05:15;101073.22;;;24.61;100.00
79645;BME280;69117;47.148;18.954;2023-08-21T06:08:17;101074.09;;;24.80;100.00
79645;BME280;69117;47.148;18.954;2023-08-21T06:11:19;101072.94;;;25.19;100.00
79645;BME280;69117;47.148;18.954;2023-08-21T06:14:21;101067.63;;;25.49;100.00
79645;BME280;69117;47.148;18.954;2023-08-21T06:17:30;101069.59;;;25.42;100.00
79645;BME280;69117;47.148;18.954;2023-08-21T06:20:31;101082.31;;;25.60;100.00
79645;BME280;69117;47.148;18.954;2023-08-21T06:23:33;101080.63;;;25.77;100.00
79645;BME280;69117;47.148;18.954;2023-08-21T06:26:34;101095.50;;;25.68;100.00
79645;BME280;69117;47.148;18.954;2023-08-21T06:29:37;101079.03;;;26.07;100.00
79645;BME280;69117;47.148;18.954;2023-08-21T06:32:41;101086.34;;;26.06;100.00
79645;BME280;69117;47.148;18.954;2023-08-21T06:35:43;101081.03;;;25.81;100.00
79645;BME280;69117;47.148;18.954;2023-08-21T06:38:45;101083.47;;;26.31;100.00
79645;BME280;69117;47.148;18.954;2023-08-21T06:41:46;101085.78;;;26.16;100.00
79645;BME280;69117;47.148;18.954;2023-08-21T06:44:48;101084.06;;;26.52;100.00
79645;BME280;69117;47.148;18.954;2023-08-21T06:47:50;101090.00;;;26.95;100.00
79645;BME280;69117;47.148;18.954;2023-08-21T06:50:52;101089.56;;;27.22;100.00
79645;BME280;69117;47.148;18.954;2023-08-21T06:53:54;101093.44;;;27.50;100.00
79645;BME280;69117;47.148;18.954;2023-08-21T06:56:55;101093.19;;;27.51;100.00
79645;BME280;69117;47.148;18.954;2023-08-21T06:59:57;101097.19;;;27.72;100.00
79645;BME280;69117;47.148;18.954;2023-08-21T07:02:59;101089.31;;;27.99;100.00
79645;BME280;69117;47.148;18.954;2023-08-21T07:06:01;101074.25;;;27.80;100.00
79645;BME280;69117;47.148;18.954;2023-08-21T07:09:02;101087.13;;;27.84;100.00
79645;BME280;69117;47.148;18.954;2023-08-21T07:12:04;101078.75;;;28.31;100.00
79645;BME280;69117;47.148;18.954;2023-08-21T07:15:07;101075.38;;;28.70;100.00
79645;BME280;69117;47.148;18.954;2023-08-21T07:18:09;101083.22;;;28.38;100.00
79645;BME280;69117;47.148;18.954;2023-08-21T07:21:10;101084.69;;;28.74;100.00
79645;BME280;69117;47.148;18.954;2023-08-21T07:24:31;101083.38;;;28.76;100.00
79645;BME280;69117;47.148;18.954;2023-08-21T07:27:33;101083.94;;;29.12;100.00
79645;BME280;69117;47.148;18.954;2023-08-21T07:30:37;101088.63;;;28.83;100.00
79645;BME280;69117;47.148;18.954;2023-08-21T07:33:38;101098.28;;;29.25;100.00
79645;BME280;69117;47.148;18.954;2023-08-21T07:36:40;101092.63;;;29.48;100.00
79645;BME280;69117;47.148;18.954;2023-08-21T07:39:42;101087.97;;;29.27;100.00
79645;BME280;69117;47.148;18.954;2023-08-21T07:42:43;101095.97;;;29.55;100.00
79645;BME280;69117;47.148;18.954;2023-08-21T07:45:45;101093.31;;;29.60;100.00
79645;BME280;69117;47.148;18.954;2023-08-21T07:48:47;101088.88;;;29.98;100.00
79645;BME280;69117;47.148;18.954;2023-08-21T07:51:49;101094.47;;;29.64;100.00
79645;BME280;69117;47.148;18.954;2023-08-21T07:54:53;101085.84;;;29.51;100.00
79645;BME280;69117;47.148;18.954;2023-08-21T07:57:55;101086.81;;;30.05;100.00
79645;BME280;69117;47.148;18.954;2023-08-21T08:00:58;101081.47;;;30.43;100.00
79645;BME280;69117;47.148;18.954;2023-08-21T08:03:59;101088.09;;;30.52;100.00
79645;BME280;69117;47.148;18.954;2023-08-21T08:07:01;101082.50;;;30.69;100.00
79645;BME280;69117;47.148;18.954;2023-08-21T08:10:03;101082.53;;;30.74;100.00
79645;BME280;69117;47.148;18.954;2023-08-21T08:13:06;101088.75;;;30.96;100.00
79645;BME280;69117;47.148;18.954;2023-08-21T08:16:08;101090.31;;;30.87;100.00
79645;BME280;69117;47.148;18.954;2023-08-21T08:19:09;101083.56;;;30.68;100.00
79645;BME280;69117;47.148;18.954;2023-08-21T08:22:11;101087.38;;;31.36;100.00
79645;BME280;69117;47.148;18.954;2023-08-21T08:25:13;101088.22;;;30.99;100.00
79645;BME280;69117;47.148;18.954;2023-08-21T08:28:15;101083.09;;;31.51;100.00
79645;BME280;69117;47.148;18.954;2023-08-21T08:31:17;101084.34;;;30.95;100.00
79645;BME280;69117;47.148;18.954;2023-08-21T08:34:19;101082.31;;;31.70;100.00
79645;BME280;69117;47.148;18.954;2023-08-21T08:37:22;101081.53;;;31.75;100.00
79645;BME280;69117;47.148;18.954;2023-08-21T08:40:23;101079.13;;;31.31;100.00
79645;BME280;69117;47.148;18.954;2023-08-21T08:43:25;101074.19;;;31.86;100.00
79645;BME280;69117;47.148;18.954;2023-08-21T08:46:29;101078.50;;;31.14;100.00
79645;BME280;69117;47.148;18.954;2023-08-21T08:49:31;101080.94;;;31.68;100.00
79645;BME280;69117;47.148;18.954;2023-08-21T08:52:38;101087.38;;;32.04;100.00
79645;BME280;69117;47.148;18.954;2023-08-21T08:55:41;101080.59;;;32.43;100.00
79645;BME280;69117;47.148;18.954;2023-08-21T08:58:43;101080.31;;;32.34;100.00
79645;BME280;69117;47.148;18.954;2023-08-21T09:01:44;101082.28;;;32.49;100.00
79645;BME280;69117;47.148;18.954;2023-08-21T09:04:46;101080.03;;;32.20;100.00
79645;BME280;69117;47.148;18.954;2023-08-21T09:11:09;101086.28;;;32.10;100.00
79645;BME280;69117;47.148;18.954;2023-08-21T09:14:11;101083.91;;;32.50;100.00
79645;BME280;69117;47.148;18.954;2023-08-21T09:17:13;101086.66;;;32.70;96.13
79645;BME280;69117;47.148;18.954;2023-08-21T09:20:15;101072.44;;;32.48;93.54
79645;BME280;69117;47.148;18.954;2023-08-21T09:23:18;101078.47;;;31.61;89.13
79645;BME280;69117;47.148;18.954;2023-08-21T09:26:21;101077.31;;;32.35;87.81
79645;BME280;69117;47.148;18.954;2023-08-21T09:29:23;101069.16;;;32.51;84.87
79645;BME280;69117;47.148;18.954;2023-08-21T09:32:25;101071.50;;;33.34;78.58
79645;BME280;69117;47.148;18.954;2023-08-21T09:35:27;101063.56;;;33.22;76.88
79645;BME280;69117;47.148;18.954;2023-08-21T09:38:28;101071.06;;;32.66;82.64
79645;BME280;69117;47.148;18.954;2023-08-21T09:41:31;101061.69;;;32.97;80.08
79645;BME280;69117;47.148;18.954;2023-08-21T09:44:38;101060.91;;;32.81;80.26
79645;BME280;69117;47.148;18.954;2023-08-21T09:47:40;101063.06;;;33.20;83.34
79645;BME280;69117;47.148;18.954;2023-08-21T09:50:43;101061.09;;;33.31;78.60
79645;BME280;69117;47.148;18.954;2023-08-21T09:53:48;101061.53;;;33.64;78.98
79645;BME280;69117;47.148;18.954;2023-08-21T09:56:51;101060.16;;;34.16;71.31
79645;BME280;69117;47.148;18.954;2023-08-21T09:59:53;101058.38;;;34.70;69.75
79645;BME280;69117;47.148;18.954;2023-08-21T10:03:00;101060.06;;;34.65;68.56
79645;BME280;69117;47.148;18.954;2023-08-21T10:06:03;101054.59;;;35.19;65.55
79645;BME280;69117;47.148;18.954;2023-08-21T10:09:08;101051.22;;;34.98;66.19
79645;BME280;69117;47.148;18.954;2023-08-21T10:12:10;101043.91;;;34.88;68.80
79645;BME280;69117;47.148;18.954;2023-08-21T10:15:14;101052.34;;;34.68;66.16
79645;BME280;69117;47.148;18.954;2023-08-21T10:18:21;101052.84;;;35.28;71.60
79645;BME280;69117;47.148;18.954;2023-08-21T10:21:25;101040.44;;;35.06;66.09
79645;BME280;69117;47.148;18.954;2023-08-21T10:24:36;101044.75;;;35.61;67.35
79645;BME280;69117;47.148;18.954;2023-08-21T10:27:40;101038.00;;;35.91;63.53
79645;BME280;69117;47.148;18.954;2023-08-21T10:30:43;101037.16;;;35.52;61.91
79645;BME280;69117;47.148;18.954;2023-08-21T10:33:47;101038.22;;;35.57;63.97
79645;BME280;69117;47.148;18.954;2023-08-21T10:37:06;101036.59;;;35.31;62.30
79645;BME280;69117;47.148;18.954;2023-08-21T10:40:21;101038.38;;;35.41;62.80
79645;BME280;69117;47.148;18.954;2023-08-21T10:43:44;101036.69;;;35.45;60.57
79645;BME280;69117;47.148;18.954;2023-08-21T10:46:52;101039.91;;;35.52;56.40
79645;BME280;69117;47.148;18.954;2023-08-21T10:49:59;101038.97;;;35.81;57.46
79645;BME280;69117;47.148;18.954;2023-08-21T10:53:01;101030.81;;;36.14;54.29
79645;BME280;69117;47.148;18.954;2023-08-21T10:56:04;101025.56;;;36.31;54.67
79645;BME280;69117;47.148;18.954;2023-08-21T10:59:06;101031.25;;;35.83;54.69
79645;BME280;69117;47.148;18.954;2023-08-21T11:02:08;101022.56;;;36.28;51.69
79645;BME280;69117;47.148;18.954;2023-08-21T11:05:11;101019.28;;;35.93;50.40
79645;BME280;69117;47.148;18.954;2023-08-21T11:08:13;101021.91;;;36.36;48.55
79645;BME280;69117;47.148;18.954;2023-08-21T11:11:16;101017.91;;;36.61;47.51
79645;BME280;69117;47.148;18.954;2023-08-21T11:14:25;101015.88;;;36.53;48.23
79645;BME280;69117;47.148;18.954;2023-08-21T11:17:27;101015.88;;;36.53;47.15
79645;BME280;69117;47.148;18.954;2023-08-21T11:20:33;101006.94;;;37.02;47.74
79645;BME280;69117;47.148;18.954;2023-08-21T11:23:37;101010.00;;;37.14;48.90
79645;BME280;69117;47.148;18.954;2023-08-21T11:26:40;101007.06;;;37.75;47.37
79645;BME280;69117;47.148;18.954;2023-08-21T11:29:43;100999.78;;;37.29;48.06
79645;BME280;69117;47.148;18.954;2023-08-21T11:32:45;100995.75;;;37.99;46.90
79645;BME280;69117;47.148;18.954;2023-08-21T11:35:47;101003.59;;;37.69;45.05
79645;BME280;69117;47.148;18.954;2023-08-21T11:39:02;100996.31;;;37.23;45.51
79645;BME280;69117;47.148;18.954;2023-08-21T11:42:11;100994.84;;;37.90;45.10
79645;BME280;69117;47.148;18.954;2023-08-21T11:45:14;100986.56;;;38.12;47.07
79645;BME280;69117;47.148;18.954;2023-08-21T11:48:19;100992.97;;;38.21;47.17
79645;BME280;69117;47.148;18.954;2023-08-21T11:51:21;100990.59;;;38.06;45.42
79645;BME280;69117;47.148;18.954;2023-08-21T11:54:22;100984.31;;;38.14;42.72
79645;BME280;69117;47.148;18.954;2023-08-21T11:57:24;100989.03;;;37.55;41.28
79645;BME280;69117;47.148;18.954;2023-08-21T12:00:29;100989.09;;;38.00;45.47
79645;BME280;69117;47.148;18.954;2023-08-21T12:03:36;100983.44;;;38.05;42.07
79645;BME280;69117;47.148;18.954;2023-08-21T12:06:43;100974.13;;;38.77;43.08
79645;BME280;69117;47.148;18.954;2023-08-21T12:09:49;100983.91;;;37.85;38.79
79645;BME280;69117;47.148;18.954;2023-08-21T12:12:51;100972.06;;;37.84;41.40
79645;BME280;69117;47.148;18.954;2023-08-21T12:15:53;100977.72;;;38.46;38.35
79645;BME280;69117;47.148;18.954;2023-08-21T12:18:54;100966.81;;;38.41;39.68
79645;BME280;69117;47.148;18.954;2023-08-21T12:21:58;100963.72;;;38.83;36.87
79645;BME280;69117;47.148;18.954;2023-08-21T12:25:00;100969.31;;;38.91;37.78
79645;BME280;69117;47.148;18.954;2023-08-21T12:28:02;100967.38;;;39.09;40.23
79645;BME280;69117;47.148;18.954;2023-08-21T12:31:10;100966.31;;;39.36;38.40
79645;BME280;69117;47.148;18.954;2023-08-21T12:34:12;100965.28;;;39.15;35.96
79645;BME280;69117;47.148;18.954;2023-08-21T12:37:14;100955.56;;;38.38;39.28
79645;BME280;69117;47.148;18.954;2023-08-21T12:40:18;100961.31;;;38.27;35.64
79645;BME280;69117;47.148;18.954;2023-08-21T12:43:20;100950.72;;;39.84;35.53
79645;BME280;69117;47.148;18.954;2023-08-21T12:46:22;100951.63;;;40.32;35.92
79645;BME280;69117;47.148;18.954;2023-08-21T12:49:24;100958.72;;;39.86;33.82
79645;BME280;69117;47.148;18.954;2023-08-21T12:52:26;100945.94;;;40.28;34.78
79645;BME280;69117;47.148;18.954;2023-08-21T12:55:30;100949.72;;;39.97;35.83
79645;BME280;69117;47.148;18.954;2023-08-21T12:58:32;100946.47;;;39.69;35.23
79645;BME280;69117;47.148;18.954;2023-08-21T13:01:34;100937.78;;;40.32;36.60
79645;BME280;69117;47.148;18.954;2023-08-21T13:04:37;100931.97;;;40.92;35.64
79645;BME280;69117;47.148;18.954;2023-08-21T13:07:38;100934.28;;;39.44;35.34
79645;BME280;69117;47.148;18.954;2023-08-21T13:10:40;100931.63;;;39.22;34.50
79645;BME280;69117;47.148;18.954;2023-08-21T13:13:42;100918.25;;;40.11;34.53
79645;BME280;69117;47.148;18.954;2023-08-21T13:16:43;100922.88;;;40.45;35.47
79645;BME280;69117;47.148;18.954;2023-08-21T13:19:46;100929.88;;;39.95;34.23
79645;BME280;69117;47.148;18.954;2023-08-21T13:22:52;100920.09;;;39.20;33.74
79645;BME280;69117;47.148;18.954;2023-08-21T13:25:53;100926.47;;;39.81;35.65
79645;BME280;69117;47.148;18.954;2023-08-21T13:28:55;100911.53;;;40.76;35.17
79645;BME280;69117;47.148;18.954;2023-08-21T13:31:57;100910.19;;;40.44;34.88
79645;BME280;69117;47.148;18.954;2023-08-21T13:34:58;100914.88;;;39.88;37.93
79645;BME280;69117;47.148;18.954;2023-08-21T13:38:00;100923.34;;;39.91;34.36
79645;BME280;69117;47.148;18.954;2023-08-21T13:41:02;100916.38;;;39.50;37.02
79645;BME280;69117;47.148;18.954;2023-08-21T13:44:03;100908.78;;;40.12;33.64
79645;BME280;69117;47.148;18.954;2023-08-21T13:47:05;100902.78;;;40.57;35.50
79645;BME280;69117;47.148;18.954;2023-08-21T13:50:07;100911.00;;;39.28;35.09
79645;BME280;69117;47.148;18.954;2023-08-21T13:53:09;100896.00;;;39.63;35.52
79645;BME280;69117;47.148;18.954;2023-08-21T13:56:11;100901.25;;;38.33;36.96
79645;BME280;69117;47.148;18.954;2023-08-21T13:59:13;100906.44;;;37.95;37.67
79645;BME280;69117;47.148;18.954;2023-08-21T14:02:15;100901.94;;;38.79;35.77
79645;BME280;69117;47.148;18.954;2023-08-21T14:05:16;100903.16;;;38.46;35.12
79645;BME280;69117;47.148;18.954;2023-08-21T14:08:19;100901.03;;;38.92;34.48
79645;BME280;69117;47.148;18.954;2023-08-21T14:11:20;100892.88;;;38.87;36.64
79645;BME280;69117;47.148;18.954;2023-08-21T14:14:22;100882.25;;;38.32;37.44
79645;BME280;69117;47.148;18.954;2023-08-21T14:17:24;100886.94;;;38.22;38.54
79645;BME280;69117;47.148;18.954;2023-08-21T14:20:26;100885.09;;;37.87;38.02
79645;BME280;69117;47.148;18.954;2023-08-21T14:23:28;100882.00;;;36.93;37.93
79645;BME280;69117;47.148;18.954;2023-08-21T14:26:33;100878.81;;;36.31;39.45
79645;BME280;69117;47.148;18.954;2023-08-21T14:29:35;100880.56;;;36.27;42.85
79645;BME280;69117;47.148;18.954;2023-08-21T14:32:36;100877.03;;;36.54;42.43
79645;BME280;69117;47.148;18.954;2023-08-21T14:35:39;100873.69;;;36.71;41.15
79645;BME280;69117;47.148;18.954;2023-08-21T14:38:41;100873.03;;;36.46;41.07
79645;BME280;69117;47.148;18.954;2023-08-21T14:41:42;100871.63;;;37.04;42.09
79645;BME280;69117;47.148;18.954;2023-08-21T14:44:44;100854.72;;;37.42;39.60
79645;BME280;69117;47.148;18.954;2023-08-21T14:47:46;100864.00;;;37.23;39.27
79645;BME280;69117;47.148;18.954;2023-08-21T14:50:48;100865.34;;;37.12;39.98
79645;BME280;69117;47.148;18.954;2023-08-21T14:53:49;100858.16;;;36.75;38.96
79645;BME280;69117;47.148;18.954;2023-08-21T14:56:51;100855.50;;;36.83;39.69
79645;BME280;69117;47.148;18.954;2023-08-21T14:59:53;100856.38;;;37.06;38.88
79645;BME280;69117;47.148;18.954;2023-08-21T15:02:54;100860.28;;;36.78;42.48
79645;BME280;69117;47.148;18.954;2023-08-21T15:05:56;100857.03;;;36.48;44.56
79645;BME280;69117;47.148;18.954;2023-08-21T15:08:58;100848.78;;;36.62;40.54
79645;BME280;69117;47.148;18.954;2023-08-21T15:12:00;100844.09;;;36.62;41.07
79645;BME280;69117;47.148;18.954;2023-08-21T15:15:02;100845.19;;;36.75;44.35
79645;BME280;69117;47.148;18.954;2023-08-21T15:18:05;100856.50;;;37.01;41.45
79645;BME280;69117;47.148;18.954;2023-08-21T15:21:07;100845.84;;;37.08;42.23
79645;BME280;69117;47.148;18.954;2023-08-21T15:24:08;100857.13;;;37.34;37.36
79645;BME280;69117;47.148;18.954;2023-08-21T15:27:10;100850.50;;;37.22;44.18
79645;BME280;69117;47.148;18.954;2023-08-21T15:30:15;100847.31;;;37.73;39.02
79645;BME280;69117;47.148;18.954;2023-08-21T15:33:18;100844.31;;;37.84;37.78
79645;BME280;69117;47.148;18.954;2023-08-21T15:36:20;100842.44;;;37.70;37.86